createdAt,value
2022-08-16T00:00:22.009Z,99687.57
2022-08-16T00:02:44.665Z,99688.59
2022-08-16T00:05:18.321Z,99685.88
2022-08-16T00:07:49.489Z,99681.61
2022-08-16T00:10:24.709Z,99679.55
2022-08-16T00:12:56.653Z,99686.89
2022-08-16T00:15:51.999Z,99692.00
2022-08-16T00:18:15.707Z,99692.84
2022-08-16T00:20:49.170Z,99695.42
2022-08-16T00:23:34.276Z,99692.69
2022-08-16T00:26:33.852Z,99696.25
2022-08-16T00:28:28.626Z,99683.81
2022-08-16T00:31:01.847Z,99702.58
2022-08-16T00:33:34.435Z,99695.41
2022-08-16T00:36:05.895Z,99700.34
2022-08-16T00:38:43.300Z,99702.20
2022-08-16T00:41:11.472Z,99701.83
2022-08-16T00:43:43.703Z,99704.77
2022-08-16T00:46:33.067Z,99707.44
2022-08-16T00:48:52.345Z,99707.93
2022-08-16T00:51:25.519Z,99714.91
2022-08-16T00:53:58.340Z,99706.89
2022-08-16T00:56:58.437Z,99709.95
2022-08-16T00:59:07.592Z,99720.45
2022-08-16T01:01:39.603Z,99717.05
2022-08-16T01:04:28.967Z,99716.84
2022-08-16T01:06:49.303Z,99718.84
2022-08-16T01:09:18.826Z,99721.39
2022-08-16T01:11:54.932Z,99722.08
2022-08-16T01:14:30.112Z,99728.89
2022-08-16T01:17:03.761Z,99730.93
2022-08-16T01:19:42.390Z,99730.03
2022-08-16T01:22:48.448Z,99729.11
2022-08-16T01:25:33.746Z,99722.98
2022-08-16T01:28:06.645Z,99724.06
2022-08-16T01:30:49.756Z,99722.87
2022-08-16T01:33:15.899Z,99724.95
2022-08-16T01:35:53.537Z,99721.17
2022-08-16T01:38:29.204Z,99721.20
2022-08-16T01:41:08.705Z,99725.27
2022-08-16T01:43:43.034Z,99712.80
2022-08-16T01:46:39.523Z,99717.38
2022-08-16T01:49:22.865Z,99718.16
2022-08-16T01:51:57.125Z,99711.06
2022-08-16T01:54:31.116Z,99721.60
2022-08-16T01:57:03.571Z,99722.45
2022-08-16T01:59:36.694Z,99719.19
2022-08-16T02:02:26.737Z,99719.34
2022-08-16T02:04:48.091Z,99728.61
2022-08-16T02:07:15.435Z,99732.06
2022-08-16T02:09:56.919Z,99739.20
2022-08-16T02:12:49.439Z,99733.71
2022-08-16T02:14:56.361Z,99730.11
2022-08-16T02:17:29.197Z,99728.66
2022-08-16T02:20:00.996Z,99730.38
2022-08-16T02:22:36.770Z,99726.58
2022-08-16T02:25:08.327Z,99739.10
2022-08-16T02:27:47.957Z,99737.75
2022-08-16T02:30:37.246Z,99737.66
2022-08-16T02:32:55.861Z,99731.33
2022-08-16T02:35:27.946Z,99732.37
2022-08-16T02:38:01.599Z,99721.45
2022-08-16T02:40:34.470Z,99721.34
2022-08-16T02:43:07.328Z,99716.20
2022-08-16T02:45:39.165Z,99721.64
2022-08-16T02:48:29.550Z,99724.55
2022-08-16T02:50:54.917Z,99720.90
2022-08-16T02:53:23.326Z,99723.53
2022-08-16T02:55:51.656Z,99730.66
2022-08-16T02:58:25.386Z,99725.86
2022-08-16T03:00:58.147Z,99725.38
2022-08-16T03:04:29.911Z,99728.48
2022-08-16T03:06:02.433Z,99729.91
2022-08-16T03:08:50.617Z,99731.14
2022-08-16T03:11:17.953Z,99726.00
2022-08-16T03:13:42.117Z,99725.16
2022-08-16T03:16:38.043Z,99731.44
2022-08-16T03:18:47.479Z,99726.05
2022-08-16T03:21:18.588Z,99723.28
2022-08-16T03:23:50.358Z,99738.56
2022-08-16T03:26:24.581Z,99755.50
2022-08-16T03:28:57.203Z,99748.44
2022-08-16T03:31:34.784Z,99751.70
2022-08-16T03:34:02.476Z,99746.81
2022-08-16T03:36:34.163Z,99751.02
2022-08-16T03:39:14.874Z,99747.52
2022-08-16T03:41:50.005Z,99749.83
2022-08-16T03:44:45.003Z,99752.23
2022-08-16T03:46:50.274Z,99752.02
2022-08-16T03:49:22.421Z,99757.27
2022-08-16T03:51:53.402Z,99753.62
2022-08-16T03:54:24.461Z,99739.89
2022-08-16T03:56:59.015Z,99757.44
2022-08-16T03:59:30.474Z,99759.56
2022-08-16T04:02:04.185Z,99760.78
2022-08-16T04:04:36.879Z,99763.50
2022-08-16T04:07:09.257Z,99758.23
2022-08-16T04:09:40.420Z,99766.23
2022-08-16T04:12:52.315Z,99779.43
2022-08-16T04:14:48.112Z,99773.70
2022-08-16T04:17:20.839Z,99774.63
2022-08-16T04:19:54.945Z,99773.84
2022-08-16T04:22:27.663Z,99780.92
2022-08-16T04:24:59.388Z,99778.05
2022-08-16T04:27:31.730Z,99787.53
2022-08-16T04:30:03.981Z,99784.81
2022-08-16T04:32:35.503Z,99789.16
2022-08-16T04:35:15.410Z,99791.88
2022-08-16T04:37:42.157Z,99792.19
2022-08-16T04:40:20.773Z,99802.53
2022-08-16T04:42:47.144Z,99799.20
2022-08-16T04:45:19.249Z,99797.33
2022-08-16T04:47:56.045Z,99802.59
2022-08-16T04:50:30.651Z,99803.28
2022-08-16T04:53:03.398Z,99806.70
2022-08-16T04:55:37.728Z,99799.70
2022-08-16T04:58:45.325Z,99805.52
2022-08-16T05:00:43.742Z,99808.02
2022-08-16T05:03:15.173Z,99813.22
2022-08-16T05:05:59.533Z,99811.66
2022-08-16T05:08:27.994Z,99817.18
2022-08-16T05:10:51.557Z,99808.52
2022-08-16T05:13:24.660Z,99809.86
2022-08-16T05:15:57.254Z,99810.89
2022-08-16T05:18:28.616Z,99820.63
2022-08-16T05:21:01.617Z,99813.83
2022-08-16T05:23:32.670Z,99819.59
2022-08-16T05:26:05.437Z,99819.06
2022-08-16T05:28:38.977Z,99813.08
2022-08-16T05:31:10.147Z,99824.13
2022-08-16T05:33:42.278Z,99823.32
2022-08-16T05:36:14.694Z,99813.86
2022-08-16T05:38:46.179Z,99812.48
2022-08-16T05:41:17.888Z,99819.59
2022-08-16T05:43:49.840Z,99823.38
2022-08-16T05:46:28.900Z,99819.52
2022-08-16T05:48:56.310Z,99823.59
2022-08-16T05:51:37.715Z,99822.84
2022-08-16T05:53:59.796Z,99824.88
2022-08-16T05:56:31.281Z,99811.14
2022-08-16T05:59:03.857Z,99817.80
2022-08-16T06:01:38.110Z,99822.16
2022-08-16T06:04:13.023Z,99815.60
2022-08-16T06:06:55.865Z,99811.42
2022-08-16T06:09:19.031Z,99814.39
2022-08-16T06:11:49.991Z,99820.20
2022-08-16T06:14:21.802Z,99815.77
2022-08-16T06:16:53.850Z,99801.30
2022-08-16T06:19:26.134Z,99804.73
2022-08-16T06:22:01.790Z,99805.25
2022-08-16T06:24:54.007Z,99809.32
2022-08-16T06:27:06.347Z,99804.41
2022-08-16T06:29:38.857Z,99813.29
2022-08-16T06:32:09.859Z,99808.51
2022-08-16T06:34:56.949Z,99812.08
2022-08-16T06:37:15.308Z,99815.34
2022-08-16T06:39:49.197Z,99810.39
2022-08-16T06:42:19.449Z,99812.41
2022-08-16T06:44:51.772Z,99821.62
2022-08-16T06:47:23.243Z,99814.94
2022-08-16T06:49:57.538Z,99826.58
2022-08-16T06:52:59.904Z,99841.75
2022-08-16T06:55:03.888Z,99835.95
2022-08-16T06:57:35.037Z,99833.17
2022-08-16T07:00:24.299Z,99833.58
2022-08-16T07:02:47.184Z,99828.40
2022-08-16T07:05:20.634Z,99840.01
2022-08-16T07:07:54.436Z,99832.01
2022-08-16T07:10:27.966Z,99846.06
2022-08-16T07:13:03.836Z,99845.68
2022-08-16T07:15:35.359Z,99846.05
2022-08-16T07:18:06.752Z,99847.30
2022-08-16T07:20:47.648Z,99838.98
2022-08-16T07:23:13.378Z,99837.57
2022-08-16T07:25:45.239Z,99835.05
2022-08-16T07:28:20.554Z,99831.96
2022-08-16T07:30:51.007Z,99832.45
2022-08-16T07:33:48.145Z,99835.91
2022-08-16T07:35:57.204Z,99827.20
2022-08-16T07:38:33.676Z,99829.66
2022-08-16T07:41:01.940Z,99830.77
2022-08-16T07:43:34.511Z,99825.59
2022-08-16T07:46:07.074Z,99828.68
2022-08-16T07:48:39.624Z,99829.20
2022-08-16T07:51:10.416Z,99835.44
2022-08-16T07:53:43.372Z,99831.64
2022-08-16T07:56:15.315Z,99822.95
2022-08-16T07:58:48.258Z,99827.49
2022-08-16T08:01:21.245Z,99824.62
2022-08-16T08:03:55.199Z,99826.72
2022-08-16T08:06:31.829Z,99824.23
2022-08-16T08:09:04.824Z,99826.89
2022-08-16T08:11:36.751Z,99825.59
2022-08-16T08:14:07.952Z,99819.42
2022-08-16T08:16:39.070Z,99824.60
2022-08-16T08:19:12.981Z,99821.45
2022-08-16T08:22:01.345Z,99817.05
2022-08-16T08:24:18.053Z,99817.41
2022-08-16T08:26:50.033Z,99818.71
2022-08-16T08:29:24.784Z,99818.10
2022-08-16T08:31:55.660Z,99811.00
2022-08-16T08:34:27.154Z,99814.91
2022-08-16T08:36:57.999Z,99812.91
2022-08-16T08:39:29.177Z,99816.95
2022-08-16T08:42:03.672Z,99816.36
2022-08-16T08:44:35.582Z,99814.44
2022-08-16T08:47:11.572Z,99820.45
2022-08-16T08:49:46.529Z,99818.59
2022-08-16T08:52:44.487Z,99820.06
2022-08-16T08:54:48.034Z,99814.77
2022-08-16T08:57:22.895Z,99818.81
2022-08-16T08:59:55.540Z,99822.80
2022-08-16T09:02:27.802Z,99815.63
2022-08-16T09:04:58.816Z,99827.92
2022-08-16T09:07:30.495Z,99820.78
2022-08-16T09:10:20.113Z,99817.83
2022-08-16T09:12:37.478Z,99823.66
2022-08-16T09:15:13.408Z,99824.63
2022-08-16T09:17:52.105Z,99832.69
2022-08-16T09:20:17.975Z,99825.55
2022-08-16T09:22:52.420Z,99822.18
2022-08-16T09:25:26.141Z,99825.56
2022-08-16T09:28:02.789Z,99810.50
2022-08-16T09:30:42.919Z,99817.72
2022-08-16T09:33:11.023Z,99814.36
2022-08-16T09:35:43.023Z,99819.41
2022-08-16T09:38:31.564Z,99823.88
2022-08-16T09:40:49.424Z,99819.88
2022-08-16T09:43:58.785Z,99816.44
2022-08-16T09:45:56.561Z,99816.45
2022-08-16T09:48:44.110Z,99815.20
2022-08-16T09:51:01.834Z,99819.75
2022-08-16T09:53:32.920Z,99820.66
2022-08-16T09:56:05.537Z,99816.58
2022-08-16T09:59:05.811Z,99812.16
2022-08-16T10:01:12.100Z,99815.48
2022-08-16T10:04:01.765Z,99813.39
2022-08-16T10:06:17.147Z,99819.20
2022-08-16T10:08:55.391Z,99807.55
2022-08-16T10:11:50.552Z,99818.70
2022-08-16T10:14:15.961Z,99814.97
2022-08-16T10:16:48.770Z,99822.12
2022-08-16T10:19:19.706Z,99816.61
2022-08-16T10:21:56.380Z,99818.80
2022-08-16T10:24:28.071Z,99821.90
2022-08-16T10:27:20.233Z,99819.80
2022-08-16T10:30:00.474Z,99810.82
2022-08-16T10:32:03.570Z,99821.31
2022-08-16T10:34:34.749Z,99824.27
2022-08-16T10:37:05.962Z,99825.37
2022-08-16T10:39:41.810Z,99821.52
2022-08-16T10:42:13.098Z,99818.27
2022-08-16T10:44:53.425Z,99814.66
2022-08-16T10:47:19.167Z,99814.56
2022-08-16T10:49:50.588Z,99825.14
2022-08-16T10:52:24.342Z,99825.55
2022-08-16T10:57:32.963Z,99824.30
2022-08-16T11:00:01.606Z,99825.11
2022-08-16T11:02:59.421Z,99830.59
2022-08-16T11:05:10.758Z,99823.66
2022-08-16T11:07:54.911Z,99815.11
2022-08-16T11:13:21.090Z,99815.97
2022-08-16T11:15:30.763Z,99823.26
2022-08-16T11:20:42.048Z,99820.91
2022-08-16T11:23:11.622Z,99814.56
2022-08-16T11:29:11.998Z,99819.55
2022-08-16T11:30:54.930Z,99806.69
2022-08-16T11:33:51.950Z,99805.13
2022-08-16T11:38:55.356Z,99809.48
2022-08-16T11:41:02.417Z,99809.52
2022-08-16T11:43:37.157Z,99806.35
2022-08-16T11:46:44.677Z,99813.61
2022-08-16T11:48:46.438Z,99804.42
2022-08-16T11:51:18.991Z,99805.95
2022-08-16T11:53:50.161Z,99804.71
2022-08-16T11:56:39.604Z,99805.33
2022-08-16T11:58:57.176Z,99796.59
2022-08-16T12:01:44.557Z,99799.30
2022-08-16T12:04:04.456Z,99795.72
2022-08-16T12:06:35.918Z,99790.13
2022-08-16T12:09:10.345Z,99792.27
2022-08-16T12:11:43.703Z,99789.06
2022-08-16T12:14:16.013Z,99794.67
2022-08-16T12:16:48.766Z,99799.58
2022-08-16T12:19:20.518Z,99790.22
2022-08-16T12:21:58.548Z,99787.11
2022-08-16T12:24:26.353Z,99784.43
2022-08-16T12:26:59.976Z,99784.43
2022-08-16T12:29:31.223Z,99775.88
2022-08-16T12:32:26.458Z,99774.77
2022-08-16T12:34:35.428Z,99775.08
2022-08-16T12:37:11.519Z,99785.96
2022-08-16T12:39:50.593Z,99789.80
2022-08-16T12:42:13.001Z,99791.16
2022-08-16T12:44:45.623Z,99793.78
2022-08-16T12:47:35.274Z,99788.85
2022-08-16T12:50:10.496Z,99794.89
2022-08-16T12:52:44.556Z,99797.27
2022-08-16T12:55:14.990Z,99803.47
2022-08-16T12:57:57.950Z,99810.31
2022-08-16T13:00:26.731Z,99836.46
2022-08-16T13:02:54.448Z,99858.96
2022-08-16T13:05:26.773Z,99855.03
2022-08-16T13:08:00.626Z,99858.02
2022-08-16T13:10:37.620Z,99866.28
2022-08-16T13:13:08.899Z,99855.94
2022-08-16T13:15:55.646Z,99866.66
2022-08-16T13:18:27.015Z,99859.28
2022-08-16T13:20:46.900Z,99877.06
2022-08-16T13:23:19.524Z,99889.66
2022-08-16T13:25:52.368Z,99906.19
2022-08-16T13:28:25.713Z,99899.28
2022-08-16T13:30:59.325Z,99897.92
2022-08-16T13:33:34.795Z,99889.69
2022-08-16T13:36:21.018Z,99880.20
2022-08-16T13:38:43.556Z,99885.93
2022-08-16T13:41:16.266Z,99878.16
2022-08-16T13:43:57.527Z,99880.36
2022-08-16T13:46:20.698Z,99889.75
2022-08-16T13:48:52.133Z,99893.45
2022-08-16T13:51:24.609Z,99891.53
2022-08-16T13:54:02.636Z,99908.52
2022-08-16T13:56:37.861Z,99915.52
2022-08-16T13:59:16.587Z,99933.56
2022-08-16T14:01:43.596Z,99929.09
2022-08-16T14:04:26.251Z,99908.17
2022-08-16T14:06:51.485Z,99912.41
2022-08-16T14:09:22.730Z,99912.88
2022-08-16T14:11:54.970Z,99903.58
2022-08-16T14:14:28.494Z,99906.63
2022-08-16T14:17:01.219Z,99910.73
2022-08-16T14:19:32.570Z,99914.14
2022-08-16T14:22:14.203Z,99918.25
2022-08-16T14:24:36.990Z,99898.80
2022-08-16T14:27:08.259Z,99904.36
2022-08-16T14:29:40.391Z,99904.58
2022-08-16T14:32:13.073Z,99901.20
2022-08-16T14:34:45.376Z,99889.75
2022-08-16T14:37:16.818Z,99881.72
2022-08-16T14:39:48.990Z,99886.00
2022-08-16T14:42:23.227Z,99896.40
2022-08-16T14:44:54.786Z,99880.37
2022-08-16T14:47:26.439Z,99892.82
2022-08-16T14:49:58.950Z,99890.23
2022-08-16T14:52:54.591Z,99889.61
2022-08-16T14:55:05.471Z,99895.86
2022-08-16T14:57:37.347Z,99878.11
2022-08-16T15:00:12.395Z,99872.42
2022-08-16T15:02:43.969Z,99890.08
2022-08-16T15:05:16.660Z,99896.99
2022-08-16T15:07:48.010Z,99884.45
2022-08-16T15:10:24.375Z,99883.92
2022-08-16T15:12:58.694Z,99894.14
2022-08-16T15:15:31.525Z,99894.31
2022-08-16T15:18:02.644Z,99888.80
2022-08-16T15:20:35.899Z,99873.00
2022-08-16T15:23:10.457Z,99884.63
2022-08-16T15:25:44.243Z,99900.56
2022-08-16T15:28:24.104Z,99910.88
2022-08-16T15:30:59.967Z,99917.75
2022-08-16T15:33:25.746Z,99909.78
2022-08-16T15:35:58.312Z,99919.09
2022-08-16T15:38:57.529Z,99927.84
2022-08-16T15:41:04.211Z,99913.80
2022-08-16T15:43:39.831Z,99905.44
2022-08-16T15:46:34.951Z,99908.76
2022-08-16T15:49:01.630Z,99907.98
2022-08-16T15:51:34.389Z,99893.48
2022-08-16T15:54:28.979Z,99886.26
2022-08-16T15:56:42.564Z,99892.76
2022-08-16T15:59:12.151Z,99888.44
2022-08-16T16:01:44.930Z,99890.83
2022-08-16T16:06:49.398Z,99907.56
2022-08-16T16:09:26.178Z,99909.58
2022-08-16T16:11:55.339Z,99906.16
2022-08-16T16:14:28.684Z,99918.48
2022-08-16T16:17:03.058Z,99910.28
2022-08-16T16:19:34.645Z,99890.41
2022-08-16T16:22:06.121Z,99894.26
2022-08-16T16:24:38.647Z,99897.62
2022-08-16T16:27:10.514Z,99896.23
2022-08-16T16:29:41.707Z,99898.09
2022-08-16T16:32:15.562Z,99894.67
2022-08-16T16:34:48.025Z,99903.58
2022-08-16T16:37:20.648Z,99896.28
2022-08-16T16:39:51.590Z,99890.17
2022-08-16T16:42:29.461Z,99889.64
2022-08-16T16:45:00.330Z,99876.69
2022-08-16T16:47:29.075Z,99872.10
2022-08-16T16:49:59.870Z,99882.35
2022-08-16T16:52:43.827Z,99884.98
2022-08-16T16:55:06.632Z,99894.42
2022-08-16T16:57:56.056Z,99888.88
2022-08-16T17:00:37.637Z,99878.67
2022-08-16T17:03:02.077Z,99880.27
2022-08-16T17:05:33.522Z,99884.45
2022-08-16T17:08:05.407Z,99897.02
2022-08-16T17:10:45.990Z,99903.69
2022-08-16T17:13:10.772Z,99908.02
2022-08-16T17:15:41.855Z,99917.29
2022-08-16T17:19:14.412Z,99911.70
2022-08-16T17:20:45.611Z,99915.45
2022-08-16T17:23:17.078Z,99912.39
2022-08-16T17:25:52.221Z,99915.12
2022-08-16T17:28:58.326Z,99915.17
2022-08-16T17:30:55.336Z,99917.86
2022-08-16T17:33:27.046Z,99918.92
2022-08-16T17:36:00.210Z,99926.95
2022-08-16T17:38:38.878Z,99940.12
2022-08-16T17:41:04.499Z,99928.63
2022-08-16T17:43:44.202Z,99929.51
2022-08-16T17:46:41.258Z,99933.37
2022-08-16T17:48:46.595Z,99938.67
2022-08-16T17:51:17.625Z,99946.76
2022-08-16T17:53:50.758Z,99953.28
2022-08-16T17:56:22.817Z,99959.77
2022-08-16T17:58:53.702Z,99959.80
2022-08-16T18:01:27.465Z,99961.14
2022-08-16T18:04:07.982Z,99970.87
2022-08-16T18:06:31.861Z,99977.36
2022-08-16T18:09:04.007Z,99984.19
2022-08-16T18:11:40.802Z,99988.61
2022-08-16T18:14:13.562Z,99985.02
2022-08-16T18:16:46.771Z,99987.91
2022-08-16T18:19:19.681Z,99983.98
2022-08-16T18:22:08.495Z,99996.94
2022-08-16T18:24:40.834Z,99990.25
2022-08-16T18:27:25.662Z,99991.19
2022-08-16T18:29:45.170Z,99999.69
2022-08-16T18:32:17.181Z,100008.77
2022-08-16T18:34:52.519Z,100017.38
2022-08-16T18:37:25.144Z,100014.13
2022-08-16T18:39:58.817Z,100014.81
2022-08-16T18:42:29.840Z,100011.50
2022-08-16T18:45:01.202Z,100015.95
2022-08-16T18:47:32.701Z,100016.11
2022-08-16T18:50:05.170Z,100012.44
2022-08-16T18:52:36.489Z,100017.83
2022-08-16T18:55:14.458Z,100000.36
2022-08-16T18:57:41.407Z,100002.16
2022-08-16T19:00:14.774Z,99992.09
2022-08-16T19:02:58.787Z,99999.11
2022-08-16T19:05:24.722Z,99993.45
2022-08-16T19:07:55.811Z,99991.41
2022-08-16T19:10:28.620Z,99999.64
2022-08-16T19:13:03.655Z,100011.02
2022-08-16T19:15:35.743Z,100003.76
2022-08-16T19:18:07.084Z,100010.84
2022-08-16T19:20:39.306Z,100012.38
2022-08-16T19:23:16.206Z,100013.47
2022-08-16T19:25:52.959Z,100016.83
2022-08-16T19:28:49.895Z,100020.05
2022-08-16T19:31:02.850Z,100031.94
2022-08-16T19:33:34.415Z,100041.77
2022-08-16T19:36:06.351Z,100036.60
2022-08-16T19:38:39.473Z,100037.78
2022-08-16T19:41:10.545Z,100028.91
2022-08-16T19:43:42.258Z,100040.77
2022-08-16T19:46:13.371Z,100064.57
2022-08-16T19:48:45.493Z,100055.03
2022-08-16T19:51:16.923Z,100052.03
2022-08-16T19:53:48.092Z,100052.88
2022-08-16T19:56:19.363Z,100046.59
2022-08-16T19:59:17.414Z,100054.52
2022-08-16T20:01:25.977Z,100058.32
2022-08-16T20:03:57.172Z,100061.28
2022-08-16T20:06:37.887Z,100052.95
2022-08-16T20:09:02.523Z,100050.84
2022-08-16T20:11:35.184Z,100053.36
2022-08-16T20:14:06.541Z,100059.18
2022-08-16T20:16:38.243Z,100065.87
2022-08-16T20:19:09.581Z,100058.33
2022-08-16T20:21:41.124Z,100072.39
2022-08-16T20:24:32.969Z,100076.98
2022-08-16T20:26:44.942Z,100067.91
2022-08-16T20:29:16.100Z,100056.48
2022-08-16T20:31:47.156Z,100066.96
2022-08-16T20:34:18.796Z,100070.02
2022-08-16T20:36:50.382Z,100060.76
2022-08-16T20:39:23.103Z,100066.75
2022-08-16T20:41:54.420Z,100087.23
2022-08-16T20:44:28.212Z,100083.11
2022-08-16T20:46:59.785Z,100070.98
2022-08-16T20:49:31.022Z,100082.00
2022-08-16T20:52:05.297Z,100079.81
2022-08-16T20:54:38.138Z,100079.89
2022-08-16T20:57:09.211Z,100067.08
2022-08-16T20:59:49.393Z,100070.69
2022-08-16T21:02:19.540Z,100063.56
2022-08-16T21:04:51.279Z,100064.66
2022-08-16T21:07:23.253Z,100070.11
2022-08-16T21:09:54.524Z,100075.56
2022-08-16T21:12:25.793Z,100072.58
2022-08-16T21:14:58.700Z,100068.14
2022-08-16T21:17:30.148Z,100075.07
2022-08-16T21:20:01.210Z,100072.66
2022-08-16T21:22:32.331Z,100082.68
2022-08-16T21:25:03.429Z,100085.81
2022-08-16T21:27:38.770Z,100083.23
2022-08-16T21:30:10.522Z,100078.83
2022-08-16T21:32:44.738Z,100088.11
2022-08-16T21:35:18.848Z,100076.39
2022-08-16T21:38:01.013Z,100091.85
2022-08-16T21:40:23.600Z,100092.90
2022-08-16T21:42:56.041Z,100096.61
2022-08-16T21:45:27.151Z,100088.30
2022-08-16T21:47:58.294Z,100091.03
2022-08-16T21:50:31.290Z,100089.73
2022-08-16T21:53:13.141Z,100088.88
2022-08-16T21:55:46.780Z,100090.89
2022-08-16T21:58:19.361Z,100087.27
2022-08-16T22:00:51.091Z,100090.08
2022-08-16T22:03:22.166Z,100101.34
2022-08-16T22:06:11.747Z,100102.12
2022-08-16T22:08:28.273Z,100094.13
2022-08-16T22:11:04.782Z,100094.70
2022-08-16T22:13:32.579Z,100100.67
2022-08-16T22:16:03.775Z,100103.78
2022-08-16T22:18:36.441Z,100110.10
2022-08-16T22:21:07.650Z,100109.92
2022-08-16T22:23:40.528Z,100105.08
2022-08-16T22:26:11.722Z,100107.25
2022-08-16T22:28:44.401Z,100114.11
2022-08-16T22:31:17.792Z,100106.84
2022-08-16T22:33:49.209Z,100110.95
2022-08-16T22:36:20.351Z,100112.11
2022-08-16T22:38:56.380Z,100110.81
2022-08-16T22:41:24.083Z,100092.11
2022-08-16T22:43:55.239Z,100098.70
2022-08-16T22:46:27.944Z,100102.67
2022-08-16T22:48:59.108Z,100095.84
2022-08-16T22:51:30.665Z,100103.25
2022-08-16T22:54:43.935Z,100098.25
2022-08-16T22:56:35.953Z,100090.41
2022-08-16T22:59:06.906Z,100098.25
2022-08-16T23:01:37.935Z,100100.05
2022-08-16T23:04:08.810Z,100104.33
2022-08-16T23:06:39.781Z,100105.56
2022-08-16T23:09:11.008Z,100096.89
2022-08-16T23:11:41.991Z,100092.39
2022-08-16T23:14:13.665Z,100092.97
2022-08-16T23:16:46.870Z,100086.38
2022-08-16T23:19:20.526Z,100083.06
2022-08-16T23:21:53.097Z,100084.92
2022-08-16T23:24:24.750Z,100078.23
2022-08-16T23:26:57.345Z,100079.53
2022-08-16T23:29:28.317Z,100083.27
2022-08-16T23:32:05.288Z,100082.03
2022-08-16T23:34:37.201Z,100083.63
2022-08-16T23:37:09.768Z,100069.17
2022-08-16T23:39:41.096Z,100072.20
2022-08-16T23:42:44.711Z,100074.64
2022-08-16T23:44:58.900Z,100080.47
2022-08-16T23:47:22.998Z,100072.33
2022-08-16T23:50:01.088Z,100078.03
2022-08-16T23:52:53.248Z,100072.91
2022-08-16T23:55:00.234Z,100076.64
2022-08-16T23:57:31.278Z,100069.48
